sensor_id;sensor_type;location;lat;lon;timestamp;temperature;humidity
19805;DHT22;10062;51.052;13.756;2022-10-16T00:00:43;15.10;99.90
19805;DHT22;10062;51.052;13.756;2022-10-16T00:03:15;14.90;99.90
19805;DHT22;10062;51.052;13.756;2022-10-16T00:05:47;14.90;99.90
19805;DHT22;10062;51.052;13.756;2022-10-16T00:08:18;14.80;99.90
19805;DHT22;10062;51.052;13.756;2022-10-16T00:10:50;14.80;99.90
19805;DHT22;10062;51.052;13.756;2022-10-16T00:13:22;14.70;99.90
19805;DHT22;10062;51.052;13.756;2022-10-16T00:15:57;14.70;99.90
19805;DHT22;10062;51.052;13.756;2022-10-16T00:18:30;14.80;99.90
19805;DHT22;10062;51.052;13.756;2022-10-16T00:21:03;14.70;99.90
19805;DHT22;10062;51.052;13.756;2022-10-16T00:23:36;14.70;99.90
19805;DHT22;10062;51.052;13.756;2022-10-16T00:26:10;14.70;99.90
19805;DHT22;10062;51.052;13.756;2022-10-16T00:28:45;14.80;99.90
19805;DHT22;10062;51.052;13.756;2022-10-16T00:31:20;14.70;99.90
19805;DHT22;10062;51.052;13.756;2022-10-16T00:33:53;14.80;99.90
19805;DHT22;10062;51.052;13.756;2022-10-16T00:36:25;14.70;99.90
19805;DHT22;10062;51.052;13.756;2022-10-16T00:38:57;14.70;99.90
19805;DHT22;10062;51.052;13.756;2022-10-16T00:41:31;14.70;99.90
19805;DHT22;10062;51.052;13.756;2022-10-16T00:47:22;14.60;99.90
19805;DHT22;10062;51.052;13.756;2022-10-16T00:49:59;14.60;99.90
19805;DHT22;10062;51.052;13.756;2022-10-16T00:52:32;14.60;99.90
19805;DHT22;10062;51.052;13.756;2022-10-16T00:55:06;14.60;99.90
19805;DHT22;10062;51.052;13.756;2022-10-16T00:57:39;14.60;99.90
19805;DHT22;10062;51.052;13.756;2022-10-16T01:00:16;14.60;99.90
19805;DHT22;10062;51.052;13.756;2022-10-16T01:02:54;14.70;99.90
19805;DHT22;10062;51.052;13.756;2022-10-16T01:05:32;14.80;99.90
19805;DHT22;10062;51.052;13.756;2022-10-16T01:08:11;14.90;99.90
19805;DHT22;10062;51.052;13.756;2022-10-16T01:10:48;14.70;99.90
19805;DHT22;10062;51.052;13.756;2022-10-16T01:13:27;14.70;99.90
19805;DHT22;10062;51.052;13.756;2022-10-16T01:16:03;14.70;99.90
19805;DHT22;10062;51.052;13.756;2022-10-16T01:18:43;14.70;99.90
19805;DHT22;10062;51.052;13.756;2022-10-16T01:21:19;14.70;99.90
19805;DHT22;10062;51.052;13.756;2022-10-16T01:24:01;14.60;99.90
19805;DHT22;10062;51.052;13.756;2022-10-16T01:26:41;14.60;99.90
19805;DHT22;10062;51.052;13.756;2022-10-16T01:29:21;14.60;99.90
19805;DHT22;10062;51.052;13.756;2022-10-16T01:31:59;14.70;99.90
19805;DHT22;10062;51.052;13.756;2022-10-16T01:34:35;14.70;99.90
19805;DHT22;10062;51.052;13.756;2022-10-16T01:37:14;14.80;99.90
19805;DHT22;10062;51.052;13.756;2022-10-16T01:39:47;14.80;99.90
19805;DHT22;10062;51.052;13.756;2022-10-16T01:42:23;14.90;99.90
19805;DHT22;10062;51.052;13.756;2022-10-16T01:44:59;14.90;99.90
19805;DHT22;10062;51.052;13.756;2022-10-16T01:47:31;14.80;99.90
19805;DHT22;10062;51.052;13.756;2022-10-16T01:50:06;14.90;99.90
19805;DHT22;10062;51.052;13.756;2022-10-16T01:52:41;14.90;99.90
19805;DHT22;10062;51.052;13.756;2022-10-16T01:55:17;15.10;99.90
19805;DHT22;10062;51.052;13.756;2022-10-16T01:57:51;15.00;99.90
19805;DHT22;10062;51.052;13.756;2022-10-16T02:00:27;15.00;99.90
19805;DHT22;10062;51.052;13.756;2022-10-16T02:03:01;15.30;99.90
19805;DHT22;10062;51.052;13.756;2022-10-16T02:05:38;15.10;99.90
19805;DHT22;10062;51.052;13.756;2022-10-16T02:08:12;15.00;99.90
19805;DHT22;10062;51.052;13.756;2022-10-16T02:10:43;15.00;99.90
19805;DHT22;10062;51.052;13.756;2022-10-16T02:13:19;15.10;99.90
19805;DHT22;10062;51.052;13.756;2022-10-16T02:15:54;15.00;99.90
19805;DHT22;10062;51.052;13.756;2022-10-16T02:18:26;15.00;99.90
19805;DHT22;10062;51.052;13.756;2022-10-16T02:21:01;15.00;99.90
19805;DHT22;10062;51.052;13.756;2022-10-16T02:23:39;15.00;99.90
19805;DHT22;10062;51.052;13.756;2022-10-16T02:26:16;15.20;99.90
19805;DHT22;10062;51.052;13.756;2022-10-16T02:28:54;15.00;99.90
19805;DHT22;10062;51.052;13.756;2022-10-16T02:31:32;15.00;99.90
19805;DHT22;10062;51.052;13.756;2022-10-16T02:34:06;15.10;99.90
19805;DHT22;10062;51.052;13.756;2022-10-16T02:36:40;15.10;99.90
19805;DHT22;10062;51.052;13.756;2022-10-16T02:39:13;15.20;99.90
19805;DHT22;10062;51.052;13.756;2022-10-16T02:41:45;15.20;99.90
19805;DHT22;10062;51.052;13.756;2022-10-16T02:44:17;15.30;99.90
19805;DHT22;10062;51.052;13.756;2022-10-16T02:46:50;15.30;99.90
19805;DHT22;10062;51.052;13.756;2022-10-16T02:49:22;15.20;99.90
19805;DHT22;10062;51.052;13.756;2022-10-16T02:51:54;15.20;99.90
19805;DHT22;10062;51.052;13.756;2022-10-16T02:54:26;15.30;99.90
19805;DHT22;10062;51.052;13.756;2022-10-16T02:56:57;15.30;99.90
19805;DHT22;10062;51.052;13.756;2022-10-16T02:59:29;15.30;99.90
19805;DHT22;10062;51.052;13.756;2022-10-16T03:02:02;15.30;99.90
19805;DHT22;10062;51.052;13.756;2022-10-16T03:04:34;15.30;99.90
19805;DHT22;10062;51.052;13.756;2022-10-16T03:07:06;15.20;99.90
19805;DHT22;10062;51.052;13.756;2022-10-16T03:09:38;15.20;99.90
19805;DHT22;10062;51.052;13.756;2022-10-16T03:12:10;15.40;99.90
19805;DHT22;10062;51.052;13.756;2022-10-16T03:14:42;15.40;99.90
19805;DHT22;10062;51.052;13.756;2022-10-16T03:17:15;15.40;99.90
19805;DHT22;10062;51.052;13.756;2022-10-16T03:19:48;15.30;99.90
19805;DHT22;10062;51.052;13.756;2022-10-16T03:22:20;15.40;99.90
19805;DHT22;10062;51.052;13.756;2022-10-16T03:24:51;15.40;99.90
19805;DHT22;10062;51.052;13.756;2022-10-16T03:27:23;15.30;99.90
19805;DHT22;10062;51.052;13.756;2022-10-16T03:29:55;15.30;99.90
19805;DHT22;10062;51.052;13.756;2022-10-16T03:32:28;15.20;99.90
19805;DHT22;10062;51.052;13.756;2022-10-16T03:35:00;15.20;99.90
19805;DHT22;10062;51.052;13.756;2022-10-16T03:37:32;15.30;99.90
19805;DHT22;10062;51.052;13.756;2022-10-16T03:40:05;15.20;99.90
19805;DHT22;10062;51.052;13.756;2022-10-16T03:42:37;15.20;99.90
19805;DHT22;10062;51.052;13.756;2022-10-16T03:45:09;15.10;99.90
19805;DHT22;10062;51.052;13.756;2022-10-16T03:47:42;15.10;99.90
19805;DHT22;10062;51.052;13.756;2022-10-16T03:50:14;15.20;99.90
19805;DHT22;10062;51.052;13.756;2022-10-16T03:52:46;15.30;99.90
19805;DHT22;10062;51.052;13.756;2022-10-16T03:55:17;15.30;99.90
19805;DHT22;10062;51.052;13.756;2022-10-16T03:57:49;15.30;99.90
19805;DHT22;10062;51.052;13.756;2022-10-16T04:00:21;15.20;99.90
19805;DHT22;10062;51.052;13.756;2022-10-16T04:02:54;15.10;99.90
19805;DHT22;10062;51.052;13.756;2022-10-16T04:05:26;15.10;99.90
19805;DHT22;10062;51.052;13.756;2022-10-16T04:07:58;15.20;99.90
19805;DHT22;10062;51.052;13.756;2022-10-16T04:10:30;15.00;99.90
19805;DHT22;10062;51.052;13.756;2022-10-16T04:13:02;15.00;99.90
19805;DHT22;10062;51.052;13.756;2022-10-16T04:15:33;15.00;99.90
19805;DHT22;10062;51.052;13.756;2022-10-16T04:18:07;15.00;99.90
19805;DHT22;10062;51.052;13.756;2022-10-16T04:20:38;15.20;99.90
19805;DHT22;10062;51.052;13.756;2022-10-16T04:23:10;15.10;99.90
19805;DHT22;10062;51.052;13.756;2022-10-16T04:25:42;15.30;99.90
19805;DHT22;10062;51.052;13.756;2022-10-16T04:28:14;15.40;99.90
19805;DHT22;10062;51.052;13.756;2022-10-16T04:30:46;15.60;99.90
19805;DHT22;10062;51.052;13.756;2022-10-16T04:33:19;15.30;99.90
19805;DHT22;10062;51.052;13.756;2022-10-16T04:35:56;15.30;99.90
19805;DHT22;10062;51.052;13.756;2022-10-16T04:38:28;15.20;99.90
19805;DHT22;10062;51.052;13.756;2022-10-16T04:41:00;15.10;99.90
19805;DHT22;10062;51.052;13.756;2022-10-16T04:43:32;15.10;99.90
19805;DHT22;10062;51.052;13.756;2022-10-16T04:46:04;15.20;99.90
19805;DHT22;10062;51.052;13.756;2022-10-16T04:48:37;15.30;99.90
19805;DHT22;10062;51.052;13.756;2022-10-16T04:51:09;15.30;99.90
19805;DHT22;10062;51.052;13.756;2022-10-16T04:53:41;15.20;99.90
19805;DHT22;10062;51.052;13.756;2022-10-16T04:56:13;15.10;99.90
19805;DHT22;10062;51.052;13.756;2022-10-16T04:58:45;15.10;99.90
19805;DHT22;10062;51.052;13.756;2022-10-16T05:01:17;15.00;99.90
19805;DHT22;10062;51.052;13.756;2022-10-16T05:03:50;15.00;99.90
19805;DHT22;10062;51.052;13.756;2022-10-16T05:06:22;15.00;99.90
19805;DHT22;10062;51.052;13.756;2022-10-16T05:08:54;15.00;99.90
19805;DHT22;10062;51.052;13.756;2022-10-16T05:11:25;14.80;99.90
19805;DHT22;10062;51.052;13.756;2022-10-16T05:13:57;14.90;99.90
19805;DHT22;10062;51.052;13.756;2022-10-16T05:16:30;14.90;99.90
19805;DHT22;10062;51.052;13.756;2022-10-16T05:19:03;15.00;99.90
19805;DHT22;10062;51.052;13.756;2022-10-16T05:21:35;15.10;99.90
19805;DHT22;10062;51.052;13.756;2022-10-16T05:24:07;15.20;99.90
19805;DHT22;10062;51.052;13.756;2022-10-16T05:26:39;15.20;99.90
19805;DHT22;10062;51.052;13.756;2022-10-16T05:29:11;15.10;99.90
19805;DHT22;10062;51.052;13.756;2022-10-16T05:31:43;15.20;99.90
19805;DHT22;10062;51.052;13.756;2022-10-16T05:34:16;15.10;99.90
19805;DHT22;10062;51.052;13.756;2022-10-16T05:36:48;15.20;99.90
19805;DHT22;10062;51.052;13.756;2022-10-16T05:39:20;15.20;99.90
19805;DHT22;10062;51.052;13.756;2022-10-16T05:41:52;15.20;99.90
19805;DHT22;10062;51.052;13.756;2022-10-16T05:44:24;15.30;99.90
19805;DHT22;10062;51.052;13.756;2022-10-16T05:46:55;15.30;99.90
19805;DHT22;10062;51.052;13.756;2022-10-16T05:49:29;15.30;99.90
19805;DHT22;10062;51.052;13.756;2022-10-16T05:52:01;15.30;99.90
19805;DHT22;10062;51.052;13.756;2022-10-16T05:54:33;15.30;99.90
19805;DHT22;10062;51.052;13.756;2022-10-16T05:57:04;15.20;99.90
19805;DHT22;10062;51.052;13.756;2022-10-16T05:59:37;15.10;99.90
19805;DHT22;10062;51.052;13.756;2022-10-16T06:02:11;15.10;99.90
19805;DHT22;10062;51.052;13.756;2022-10-16T06:04:45;15.10;99.90
19805;DHT22;10062;51.052;13.756;2022-10-16T06:07:17;15.10;99.90
19805;DHT22;10062;51.052;13.756;2022-10-16T06:09:49;15.20;99.90
19805;DHT22;10062;51.052;13.756;2022-10-16T06:12:21;15.30;99.90
19805;DHT22;10062;51.052;13.756;2022-10-16T06:14:52;15.30;99.90
19805;DHT22;10062;51.052;13.756;2022-10-16T06:17:24;15.40;99.90
19805;DHT22;10062;51.052;13.756;2022-10-16T06:19:57;15.60;99.90
19805;DHT22;10062;51.052;13.756;2022-10-16T06:22:29;15.50;99.90
19805;DHT22;10062;51.052;13.756;2022-10-16T06:25:01;15.60;99.90
19805;DHT22;10062;51.052;13.756;2022-10-16T06:27:33;15.40;99.90
19805;DHT22;10062;51.052;13.756;2022-10-16T06:30:06;15.50;99.90
19805;DHT22;10062;51.052;13.756;2022-10-16T06:32:38;15.50;99.90
19805;DHT22;10062;51.052;13.756;2022-10-16T06:35:11;15.70;99.90
19805;DHT22;10062;51.052;13.756;2022-10-16T06:37:43;15.60;99.90
19805;DHT22;10062;51.052;13.756;2022-10-16T06:40:15;15.60;99.90
19805;DHT22;10062;51.052;13.756;2022-10-16T06:42:46;15.70;99.90
19805;DHT22;10062;51.052;13.756;2022-10-16T06:45:18;15.70;99.90
19805;DHT22;10062;51.052;13.756;2022-10-16T06:47:50;15.90;99.90
19805;DHT22;10062;51.052;13.756;2022-10-16T06:50:23;16.00;99.90
19805;DHT22;10062;51.052;13.756;2022-10-16T06:52:55;15.90;99.90
19805;DHT22;10062;51.052;13.756;2022-10-16T06:55:27;16.00;99.90
19805;DHT22;10062;51.052;13.756;2022-10-16T06:57:59;16.20;96.90
19805;DHT22;10062;51.052;13.756;2022-10-16T07:00:30;16.20;95.20
19805;DHT22;10062;51.052;13.756;2022-10-16T07:03:02;16.30;84.30
19805;DHT22;10062;51.052;13.756;2022-10-16T07:05:38;16.30;78.30
19805;DHT22;10062;51.052;13.756;2022-10-16T07:08:10;16.80;80.00
19805;DHT22;10062;51.052;13.756;2022-10-16T07:10:42;16.30;76.10
19805;DHT22;10062;51.052;13.756;2022-10-16T07:13:14;16.10;93.50
19805;DHT22;10062;51.052;13.756;2022-10-16T07:15:45;16.20;99.90
19805;DHT22;10062;51.052;13.756;2022-10-16T07:18:17;16.40;93.70
19805;DHT22;10062;51.052;13.756;2022-10-16T07:20:51;16.50;87.60
19805;DHT22;10062;51.052;13.756;2022-10-16T07:23:22;16.60;74.70
19805;DHT22;10062;51.052;13.756;2022-10-16T07:25:54;16.70;58.70
19805;DHT22;10062;51.052;13.756;2022-10-16T07:28:27;16.70;61.40
19805;DHT22;10062;51.052;13.756;2022-10-16T07:31:01;16.70;59.30
19805;DHT22;10062;51.052;13.756;2022-10-16T07:33:34;16.70;64.40
19805;DHT22;10062;51.052;13.756;2022-10-16T07:36:07;16.70;52.60
19805;DHT22;10062;51.052;13.756;2022-10-16T07:38:39;16.70;61.10
19805;DHT22;10062;51.052;13.756;2022-10-16T07:41:14;16.80;41.10
19805;DHT22;10062;51.052;13.756;2022-10-16T07:43:47;16.70;52.20
19805;DHT22;10062;51.052;13.756;2022-10-16T07:46:19;17.10;60.70
19805;DHT22;10062;51.052;13.756;2022-10-16T07:48:52;16.60;64.10
19805;DHT22;10062;51.052;13.756;2022-10-16T07:51:26;16.70;80.00
19805;DHT22;10062;51.052;13.756;2022-10-16T07:53:57;16.80;70.30
19805;DHT22;10062;51.052;13.756;2022-10-16T07:56:31;15.50;69.40
19805;DHT22;10062;51.052;13.756;2022-10-16T07:59:03;16.80;69.30
19805;DHT22;10062;51.052;13.756;2022-10-16T08:01:35;17.00;58.10
19805;DHT22;10062;51.052;13.756;2022-10-16T08:04:07;17.00;45.80
19805;DHT22;10062;51.052;13.756;2022-10-16T08:06:41;17.10;40.00
19805;DHT22;10062;51.052;13.756;2022-10-16T08:09:13;17.10;41.20
19805;DHT22;10062;51.052;13.756;2022-10-16T08:11:45;17.10;32.70
19805;DHT22;10062;51.052;13.756;2022-10-16T08:14:17;17.20;47.70
19805;DHT22;10062;51.052;13.756;2022-10-16T08:16:48;17.50;33.80
19805;DHT22;10062;51.052;13.756;2022-10-16T08:19:20;17.70;7.40
19805;DHT22;10062;51.052;13.756;2022-10-16T08:21:53;17.90;1.00
19805;DHT22;10062;51.052;13.756;2022-10-16T08:24:25;17.90;1.00
19805;DHT22;10062;51.052;13.756;2022-10-16T08:26:57;17.90;1.00
19805;DHT22;10062;51.052;13.756;2022-10-16T08:29:29;17.90;1.00
19805;DHT22;10062;51.052;13.756;2022-10-16T08:32:03;18.10;1.00
19805;DHT22;10062;51.052;13.756;2022-10-16T08:34:35;18.20;1.00
19805;DHT22;10062;51.052;13.756;2022-10-16T08:37:08;18.30;1.00
19805;DHT22;10062;51.052;13.756;2022-10-16T08:39:41;18.60;1.00
19805;DHT22;10062;51.052;13.756;2022-10-16T08:42:23;19.00;1.00
19805;DHT22;10062;51.052;13.756;2022-10-16T08:45:19;19.10;1.00
19805;DHT22;10062;51.052;13.756;2022-10-16T08:48:00;19.10;1.00
19805;DHT22;10062;51.052;13.756;2022-10-16T08:50:38;19.10;1.00
19805;DHT22;10062;51.052;13.756;2022-10-16T08:53:15;19.50;1.00
19805;DHT22;10062;51.052;13.756;2022-10-16T08:55:51;19.80;1.00
19805;DHT22;10062;51.052;13.756;2022-10-16T08:58:27;20.10;1.00
19805;DHT22;10062;51.052;13.756;2022-10-16T09:01:01;21.00;1.00
19805;DHT22;10062;51.052;13.756;2022-10-16T09:03:56;22.30;1.00
19805;DHT22;10062;51.052;13.756;2022-10-16T09:06:42;23.40;1.00
19805;DHT22;10062;51.052;13.756;2022-10-16T09:09:34;23.80;1.00
19805;DHT22;10062;51.052;13.756;2022-10-16T09:12:13;25.10;1.00
19805;DHT22;10062;51.052;13.756;2022-10-16T09:14:59;26.30;1.00
19805;DHT22;10062;51.052;13.756;2022-10-16T09:17:40;26.40;1.00
19805;DHT22;10062;51.052;13.756;2022-10-16T09:23:13;26.80;98.10
19805;DHT22;10062;51.052;13.756;2022-10-16T09:25:49;26.90;1.00
19805;DHT22;10062;51.052;13.756;2022-10-16T09:28:21;27.70;1.00
19805;DHT22;10062;51.052;13.756;2022-10-16T09:30:53;28.40;1.00
19805;DHT22;10062;51.052;13.756;2022-10-16T09:33:28;27.20;1.00
19805;DHT22;10062;51.052;13.756;2022-10-16T09:36:03;26.30;1.00
19805;DHT22;10062;51.052;13.756;2022-10-16T09:38:36;25.90;1.00
19805;DHT22;10062;51.052;13.756;2022-10-16T09:41:18;24.70;1.00
19805;DHT22;10062;51.052;13.756;2022-10-16T09:43:53;24.40;1.00
19805;DHT22;10062;51.052;13.756;2022-10-16T09:46:28;24.50;1.00
19805;DHT22;10062;51.052;13.756;2022-10-16T09:49:01;24.90;1.00
19805;DHT22;10062;51.052;13.756;2022-10-16T09:51:35;24.80;1.00
19805;DHT22;10062;51.052;13.756;2022-10-16T09:54:15;24.60;1.00
19805;DHT22;10062;51.052;13.756;2022-10-16T09:56:48;24.40;1.00
19805;DHT22;10062;51.052;13.756;2022-10-16T09:59:22;24.30;1.00
19805;DHT22;10062;51.052;13.756;2022-10-16T10:02:00;24.20;1.00
19805;DHT22;10062;51.052;13.756;2022-10-16T10:04:39;24.50;99.90
19805;DHT22;10062;51.052;13.756;2022-10-16T10:07:18;25.20;1.00
19805;DHT22;10062;51.052;13.756;2022-10-16T10:09:50;25.80;99.90
19805;DHT22;10062;51.052;13.756;2022-10-16T10:12:24;26.10;99.90
19805;DHT22;10062;51.052;13.756;2022-10-16T10:15:02;26.10;99.90
19805;DHT22;10062;51.052;13.756;2022-10-16T10:17:45;25.90;1.00
19805;DHT22;10062;51.052;13.756;2022-10-16T10:20:26;25.80;1.00
19805;DHT22;10062;51.052;13.756;2022-10-16T10:22:59;25.90;1.00
19805;DHT22;10062;51.052;13.756;2022-10-16T10:25:42;26.10;1.00
19805;DHT22;10062;51.052;13.756;2022-10-16T10:28:32;26.30;1.00
19805;DHT22;10062;51.052;13.756;2022-10-16T10:31:14;26.40;1.00
19805;DHT22;10062;51.052;13.756;2022-10-16T10:33:53;26.30;1.00
19805;DHT22;10062;51.052;13.756;2022-10-16T10:36:29;26.90;1.00
19805;DHT22;10062;51.052;13.756;2022-10-16T10:39:05;26.60;1.00
19805;DHT22;10062;51.052;13.756;2022-10-16T10:42:02;27.40;1.00
19805;DHT22;10062;51.052;13.756;2022-10-16T10:44:52;27.10;99.90
19805;DHT22;10062;51.052;13.756;2022-10-16T10:47:34;26.80;1.00
19805;DHT22;10062;51.052;13.756;2022-10-16T10:50:18;27.80;99.90
19805;DHT22;10062;51.052;13.756;2022-10-16T10:52:58;27.20;99.90
19805;DHT22;10062;51.052;13.756;2022-10-16T10:55:38;26.80;1.00
19805;DHT22;10062;51.052;13.756;2022-10-16T10:58:31;26.60;1.00
19805;DHT22;10062;51.052;13.756;2022-10-16T11:01:09;26.70;1.00
19805;DHT22;10062;51.052;13.756;2022-10-16T11:03:54;26.60;1.00
19805;DHT22;10062;51.052;13.756;2022-10-16T11:06:31;25.70;1.00
19805;DHT22;10062;51.052;13.756;2022-10-16T11:09:09;25.50;1.00
19805;DHT22;10062;51.052;13.756;2022-10-16T11:11:44;25.20;1.00
19805;DHT22;10062;51.052;13.756;2022-10-16T11:14:20;25.30;1.00
19805;DHT22;10062;51.052;13.756;2022-10-16T11:16:58;25.00;1.00
19805;DHT22;10062;51.052;13.756;2022-10-16T11:19:37;24.50;1.00
19805;DHT22;10062;51.052;13.756;2022-10-16T11:22:16;24.50;1.00
19805;DHT22;10062;51.052;13.756;2022-10-16T11:24:51;24.70;1.00
19805;DHT22;10062;51.052;13.756;2022-10-16T11:27:33;25.00;1.00
19805;DHT22;10062;51.052;13.756;2022-10-16T11:30:14;25.40;1.00
19805;DHT22;10062;51.052;13.756;2022-10-16T11:33:06;25.90;1.00
19805;DHT22;10062;51.052;13.756;2022-10-16T11:35:47;25.80;1.00
19805;DHT22;10062;51.052;13.756;2022-10-16T11:38:25;25.60;1.00
19805;DHT22;10062;51.052;13.756;2022-10-16T11:41:02;25.40;1.00
19805;DHT22;10062;51.052;13.756;2022-10-16T11:43:38;25.60;1.00
19805;DHT22;10062;51.052;13.756;2022-10-16T11:46:17;25.40;1.00
19805;DHT22;10062;51.052;13.756;2022-10-16T11:48:55;25.30;1.00
19805;DHT22;10062;51.052;13.756;2022-10-16T11:51:33;24.50;1.00
19805;DHT22;10062;51.052;13.756;2022-10-16T11:54:16;24.50;1.00
19805;DHT22;10062;51.052;13.756;2022-10-16T11:56:54;24.50;1.00
19805;DHT22;10062;51.052;13.756;2022-10-16T11:59:31;24.70;1.00
19805;DHT22;10062;51.052;13.756;2022-10-16T12:02:25;25.30;1.00
19805;DHT22;10062;51.052;13.756;2022-10-16T12:05:09;25.50;1.00
19805;DHT22;10062;51.052;13.756;2022-10-16T12:07:49;25.70;1.00
19805;DHT22;10062;51.052;13.756;2022-10-16T12:10:25;25.60;1.00
19805;DHT22;10062;51.052;13.756;2022-10-16T12:12:58;25.80;1.00
19805;DHT22;10062;51.052;13.756;2022-10-16T12:15:31;25.90;1.00
19805;DHT22;10062;51.052;13.756;2022-10-16T12:18:03;25.90;1.00
19805;DHT22;10062;51.052;13.756;2022-10-16T12:20:36;25.60;1.00
19805;DHT22;10062;51.052;13.756;2022-10-16T12:23:20;25.70;1.00
19805;DHT22;10062;51.052;13.756;2022-10-16T12:25:54;25.50;1.00
19805;DHT22;10062;51.052;13.756;2022-10-16T12:28:28;25.30;1.00
19805;DHT22;10062;51.052;13.756;2022-10-16T12:31:02;25.20;1.00
19805;DHT22;10062;51.052;13.756;2022-10-16T12:33:36;25.10;1.00
19805;DHT22;10062;51.052;13.756;2022-10-16T12:36:15;25.00;1.00
19805;DHT22;10062;51.052;13.756;2022-10-16T12:38:49;24.70;1.00
19805;DHT22;10062;51.052;13.756;2022-10-16T12:41:25;24.80;1.00
19805;DHT22;10062;51.052;13.756;2022-10-16T12:43:59;24.90;1.00
19805;DHT22;10062;51.052;13.756;2022-10-16T12:46:38;24.90;1.00
19805;DHT22;10062;51.052;13.756;2022-10-16T12:49:28;24.60;1.00
19805;DHT22;10062;51.052;13.756;2022-10-16T12:52:02;24.50;1.00
19805;DHT22;10062;51.052;13.756;2022-10-16T12:54:36;24.60;1.00
19805;DHT22;10062;51.052;13.756;2022-10-16T12:57:19;24.80;1.00
19805;DHT22;10062;51.052;13.756;2022-10-16T12:59:59;25.30;1.00
19805;DHT22;10062;51.052;13.756;2022-10-16T13:02:49;25.60;1.00
19805;DHT22;10062;51.052;13.756;2022-10-16T13:08:31;25.90;1.00
19805;DHT22;10062;51.052;13.756;2022-10-16T13:11:11;26.00;1.00
19805;DHT22;10062;51.052;13.756;2022-10-16T13:14:03;26.00;1.00
19805;DHT22;10062;51.052;13.756;2022-10-16T13:16:49;25.80;1.00
19805;DHT22;10062;51.052;13.756;2022-10-16T13:19:28;25.70;1.00
19805;DHT22;10062;51.052;13.756;2022-10-16T13:22:05;25.80;1.00
19805;DHT22;10062;51.052;13.756;2022-10-16T13:24:58;25.70;1.00
19805;DHT22;10062;51.052;13.756;2022-10-16T13:27:39;25.60;1.00
19805;DHT22;10062;51.052;13.756;2022-10-16T13:30:16;25.60;1.00
19805;DHT22;10062;51.052;13.756;2022-10-16T13:32:50;25.50;1.00
19805;DHT22;10062;51.052;13.756;2022-10-16T13:35:28;25.40;1.00
19805;DHT22;10062;51.052;13.756;2022-10-16T13:38:05;25.30;1.00
19805;DHT22;10062;51.052;13.756;2022-10-16T13:40:52;25.10;1.00
19805;DHT22;10062;51.052;13.756;2022-10-16T13:43:27;24.90;1.00
19805;DHT22;10062;51.052;13.756;2022-10-16T13:46:02;24.80;1.00
19805;DHT22;10062;51.052;13.756;2022-10-16T13:48:34;24.60;1.00
19805;DHT22;10062;51.052;13.756;2022-10-16T13:51:12;24.50;1.00
19805;DHT22;10062;51.052;13.756;2022-10-16T13:53:45;24.20;99.90
19805;DHT22;10062;51.052;13.756;2022-10-16T13:56:21;23.80;1.00
19805;DHT22;10062;51.052;13.756;2022-10-16T13:59:04;23.60;99.90
19805;DHT22;10062;51.052;13.756;2022-10-16T14:01:40;23.60;1.00
19805;DHT22;10062;51.052;13.756;2022-10-16T14:04:13;23.70;1.00
19805;DHT22;10062;51.052;13.756;2022-10-16T14:06:50;23.90;1.00
19805;DHT22;10062;51.052;13.756;2022-10-16T14:09:25;24.00;99.90
19805;DHT22;10062;51.052;13.756;2022-10-16T14:12:01;24.20;74.40
19805;DHT22;10062;51.052;13.756;2022-10-16T14:14:35;24.10;99.90
19805;DHT22;10062;51.052;13.756;2022-10-16T14:17:14;24.00;99.90
19805;DHT22;10062;51.052;13.756;2022-10-16T14:19:46;24.00;99.90
19805;DHT22;10062;51.052;13.756;2022-10-16T14:22:32;24.00;99.90
19805;DHT22;10062;51.052;13.756;2022-10-16T14:25:22;23.90;1.00
19805;DHT22;10062;51.052;13.756;2022-10-16T14:28:00;23.90;1.00
19805;DHT22;10062;51.052;13.756;2022-10-16T14:30:34;23.90;1.00
19805;DHT22;10062;51.052;13.756;2022-10-16T14:33:21;23.90;45.20
19805;DHT22;10062;51.052;13.756;2022-10-16T14:36:02;23.90;99.90
19805;DHT22;10062;51.052;13.756;2022-10-16T14:38:34;23.90;99.90
19805;DHT22;10062;51.052;13.756;2022-10-16T14:41:06;23.80;1.00
19805;DHT22;10062;51.052;13.756;2022-10-16T14:43:41;23.80;1.00
19805;DHT22;10062;51.052;13.756;2022-10-16T14:46:17;23.80;1.00
19805;DHT22;10062;51.052;13.756;2022-10-16T14:48:50;23.70;1.00
19805;DHT22;10062;51.052;13.756;2022-10-16T14:51:22;23.60;1.00
19805;DHT22;10062;51.052;13.756;2022-10-16T14:53:54;23.50;1.00
19805;DHT22;10062;51.052;13.756;2022-10-16T14:56:30;23.50;1.00
19805;DHT22;10062;51.052;13.756;2022-10-16T14:59:04;23.40;1.00
19805;DHT22;10062;51.052;13.756;2022-10-16T15:01:36;23.40;1.00
19805;DHT22;10062;51.052;13.756;2022-10-16T15:04:08;23.40;1.00
19805;DHT22;10062;51.052;13.756;2022-10-16T15:06:40;23.30;99.90
19805;DHT22;10062;51.052;13.756;2022-10-16T15:09:12;23.20;1.00
19805;DHT22;10062;51.052;13.756;2022-10-16T15:11:44;23.20;81.30
19805;DHT22;10062;51.052;13.756;2022-10-16T15:14:18;23.20;1.00
19805;DHT22;10062;51.052;13.756;2022-10-16T15:16:50;23.10;99.90
19805;DHT22;10062;51.052;13.756;2022-10-16T15:19:22;23.10;99.90
19805;DHT22;10062;51.052;13.756;2022-10-16T15:21:54;23.00;1.00
19805;DHT22;10062;51.052;13.756;2022-10-16T15:24:26;23.00;1.00
19805;DHT22;10062;51.052;13.756;2022-10-16T15:26:58;22.90;1.00
19805;DHT22;10062;51.052;13.756;2022-10-16T15:29:31;22.80;99.90
19805;DHT22;10062;51.052;13.756;2022-10-16T15:32:03;22.80;1.00
19805;DHT22;10062;51.052;13.756;2022-10-16T15:34:35;22.70;1.00
19805;DHT22;10062;51.052;13.756;2022-10-16T15:37:08;22.60;1.00
19805;DHT22;10062;51.052;13.756;2022-10-16T15:39:42;22.60;1.00
19805;DHT22;10062;51.052;13.756;2022-10-16T15:42:14;22.50;99.90
19805;DHT22;10062;51.052;13.756;2022-10-16T15:44:47;22.40;99.90
19805;DHT22;10062;51.052;13.756;2022-10-16T15:47:19;22.30;1.00
19805;DHT22;10062;51.052;13.756;2022-10-16T15:49:50;22.20;1.00
19805;DHT22;10062;51.052;13.756;2022-10-16T15:52:22;22.10;1.00
19805;DHT22;10062;51.052;13.756;2022-10-16T15:54:54;22.10;1.00
19805;DHT22;10062;51.052;13.756;2022-10-16T15:57:28;22.00;32.80
19805;DHT22;10062;51.052;13.756;2022-10-16T16:00:01;21.90;99.90
19805;DHT22;10062;51.052;13.756;2022-10-16T16:02:43;21.60;1.00
19805;DHT22;10062;51.052;13.756;2022-10-16T16:05:15;21.70;1.00
19805;DHT22;10062;51.052;13.756;2022-10-16T16:07:47;21.60;1.00
19805;DHT22;10062;51.052;13.756;2022-10-16T16:10:20;21.40;1.00
19805;DHT22;10062;51.052;13.756;2022-10-16T16:12:52;21.40;1.00
19805;DHT22;10062;51.052;13.756;2022-10-16T16:15:25;21.30;1.00
19805;DHT22;10062;51.052;13.756;2022-10-16T16:17:57;21.20;1.00
19805;DHT22;10062;51.052;13.756;2022-10-16T16:20:29;21.10;1.00